Time;durP1;ratioP1;P1;durP2;ratioP2;P2;SDS_P1;SDS_P2;PMS_P1;PMS_P2;Temp;Humidity;BMP_temperature;BMP_pressure;BME280_temperature;BME280_humidity;BME280_pressure;Samples;Min_cycle;Max_cycle;Signal;HPM_P1;HPM_P2
2022/04/15 00:02:19;;;;;;;9.70;5.97;;;11.70;99.90;11.70;101041.00;;;;4874969;28;120645;-70
2022/04/15 00:04:51;;;;;;;8.20;5.97;;;11.70;99.90;11.70;101036.00;;;;4873238;28;110673;-70
2022/04/15 00:07:17;;;;;;;7.57;6.07;;;11.70;99.90;11.70;101032.00;;;;4875988;28;93783;-70
2022/04/15 00:09:44;;;;;;;13.20;7.13;;;11.70;99.90;11.70;101026.00;;;;4876426;28;94117;-70
2022/04/15 00:12:17;;;;;;;8.07;5.77;;;11.70;99.90;11.70;101035.00;;;;4875919;28;93766;-70
2022/04/15 00:14:44;;;;;;;7.63;6.87;;;11.70;99.90;11.70;101031.00;;;;4868293;28;94292;-71
2022/04/15 00:17:09;;;;;;;6.63;5.30;;;11.70;99.90;11.70;101021.00;;;;4861181;28;92746;-71
2022/04/15 00:19:36;;;;;;;6.83;5.80;;;11.70;99.90;11.70;101024.00;;;;4874263;28;122493;-71
2022/04/15 00:22:02;;;;;;;8.37;6.57;;;11.70;99.90;11.70;101018.00;;;;4876598;28;92239;-71
2022/04/15 00:24:27;;;;;;;7.90;7.07;;;11.70;99.90;11.70;101013.00;;;;4876350;28;102355;-71
2022/04/15 00:26:53;;;;;;;11.40;7.77;;;11.70;99.90;11.70;101020.00;;;;4873836;28;108687;-71
2022/04/15 00:29:19;;;;;;;10.40;6.67;;;11.70;99.90;11.70;101019.00;;;;4865584;28;123674;-72
2022/04/15 00:31:44;;;;;;;7.47;6.53;;;11.70;99.90;11.60;101029.00;;;;4856113;28;122541;-72
2022/04/15 00:34:10;;;;;;;10.40;7.10;;;11.70;99.90;11.60;101024.00;;;;4839559;28;110258;-71
2022/04/15 00:36:36;;;;;;;9.27;5.97;;;11.60;99.90;11.60;101035.00;;;;4862852;28;108291;-71
2022/04/15 00:39:01;;;;;;;10.33;6.73;;;11.60;99.90;11.50;101036.00;;;;4876159;28;93086;-71
2022/04/15 00:41:27;;;;;;;16.33;8.37;;;11.60;99.90;11.50;101027.00;;;;4875808;28;123194;-72
2022/04/15 00:43:54;;;;;;;10.47;7.47;;;11.50;99.90;11.50;101031.00;;;;4856575;28;111272;-72
2022/04/15 00:46:20;;;;;;;13.73;9.17;;;11.50;99.90;11.50;101026.00;;;;4858512;28;92159;-72
2022/04/15 00:48:46;;;;;;;10.53;8.43;;;11.50;99.90;11.50;101025.00;;;;4861424;28;93827;-72
2022/04/15 00:51:12;;;;;;;10.37;7.53;;;11.50;99.90;11.50;101032.00;;;;4850790;28;121046;-72
2022/04/15 00:53:40;;;;;;;15.57;8.17;;;11.60;99.90;11.50;101031.00;;;;4856571;28;109870;-71
2022/04/15 00:56:09;;;;;;;12.20;7.83;;;11.50;99.90;11.50;101025.00;;;;4876244;28;92944;-72
2022/04/15 00:58:36;;;;;;;8.73;7.83;;;11.60;99.90;11.50;101026.00;;;;4857524;28;94427;-71
2022/04/15 01:01:03;;;;;;;11.60;8.37;;;11.30;99.90;11.50;101027.00;;;;4858129;28;94513;-72
2022/04/15 01:03:29;;;;;;;12.67;7.87;;;11.50;99.90;11.60;101026.00;;;;4872437;28;92824;-72
2022/04/15 01:05:59;;;;;;;11.40;8.50;;;11.60;99.90;11.50;101020.00;;;;4856805;28;99828;-72
2022/04/15 01:08:29;;;;;;;12.63;8.43;;;11.60;99.90;11.50;101023.00;;;;4855630;28;94385;-72
2022/04/15 01:10:58;;;;;;;13.23;8.00;;;11.60;99.90;11.50;101030.00;;;;4868566;28;94065;-72
2022/04/15 01:13:26;;;;;;;13.87;7.30;;;11.60;99.90;11.60;101030.00;;;;4875078;28;93034;-72
2022/04/15 01:15:55;;;;;;;12.90;8.07;;;11.60;99.90;11.60;101027.00;;;;4874348;28;92872;-72
2022/04/15 01:18:21;;;;;;;13.20;8.43;;;11.60;99.90;11.60;101032.00;;;;4872078;28;94235;-71
2022/04/15 01:20:52;;;;;;;10.40;7.63;;;11.60;99.90;11.50;101026.00;;;;4863063;28;108493;-71
2022/04/15 01:23:19;;;;;;;8.43;7.53;;;11.60;99.90;11.50;101028.00;;;;4873622;28;93109;-71
2022/04/15 01:25:45;;;;;;;17.37;9.53;;;11.50;99.90;11.50;101030.00;;;;4857368;28;97645;-72
2022/04/15 01:28:10;;;;;;;14.40;8.73;;;11.50;99.90;11.50;101026.00;;;;4867757;28;118977;-72
2022/04/15 01:30:37;;;;;;;15.97;9.13;;;11.60;99.90;11.50;101034.00;;;;4858588;28;93751;-72
2022/04/15 01:33:03;;;;;;;12.83;9.10;;;11.50;99.90;11.50;101030.00;;;;4875064;28;109682;-72
2022/04/15 01:35:29;;;;;;;15.77;9.50;;;11.50;99.90;11.50;101026.00;;;;4876378;28;92053;-72
2022/04/15 01:37:59;;;;;;;15.00;10.07;;;11.50;99.90;11.50;101031.00;;;;4872368;28;112242;-72
2022/04/15 01:40:25;;;;;;;18.00;10.40;;;11.50;99.90;11.50;101032.00;;;;4857972;28;92863;-71
2022/04/15 01:42:51;;;;;;;13.77;9.17;;;11.50;99.90;11.50;101018.00;;;;4872680;28;112918;-71
2022/04/15 01:45:16;;;;;;;15.37;9.33;;;11.50;99.90;11.40;101032.00;;;;4875187;28;108341;-72
2022/04/15 01:47:42;;;;;;;13.93;9.90;;;11.50;99.90;11.40;101027.00;;;;4860288;28;116718;-72
2022/04/15 01:50:09;;;;;;;20.23;10.33;;;11.50;99.90;11.40;101034.00;;;;4856202;28;92982;-72
2022/04/15 01:52:35;;;;;;;15.27;10.17;;;11.40;99.90;11.40;101020.00;;;;4855332;28;92835;-72
2022/04/15 01:55:01;;;;;;;12.77;9.77;;;11.40;99.90;11.40;101014.00;;;;4860903;28;103329;-72
2022/04/15 01:57:27;;;;;;;15.10;9.47;;;11.40;99.90;11.30;101020.00;;;;4873917;28;113812;-72
2022/04/15 01:59:53;;;;;;;18.27;12.00;;;11.40;99.90;11.30;101034.00;;;;4859662;28;122480;-72
2022/04/15 02:02:19;;;;;;;16.10;9.93;;;11.30;99.90;11.30;101027.00;;;;4854592;28;110095;-72
2022/04/15 02:04:44;;;;;;;18.07;11.67;;;11.30;99.90;11.20;101027.00;;;;4855572;28;108051;-73
2022/04/15 02:07:10;;;;;;;19.13;10.97;;;11.30;99.90;11.20;101020.00;;;;4836234;28;123762;-73
2022/04/15 02:09:36;;;;;;;15.07;10.40;;;11.20;99.90;11.10;101022.00;;;;4871130;28;123947;-72
2022/04/15 02:12:02;;;;;;;20.43;11.53;;;11.20;99.90;11.10;101020.00;;;;4854166;28;112970;-73
2022/04/15 02:14:28;;;;;;;19.07;12.73;;;11.10;99.90;11.00;101026.00;;;;4859568;28;98229;-72
2022/04/15 02:16:54;;;;;;;14.37;11.20;;;11.10;99.90;11.00;101033.00;;;;4855677;28;93048;-72
2022/04/15 02:19:23;;;;;;;23.50;11.87;;;11.00;99.90;10.90;101029.00;;;;4873225;28;93128;-72
2022/04/15 02:21:49;;;;;;;16.43;10.83;;;11.00;99.90;10.80;101023.00;;;;4855103;28;113275;-72
2022/04/15 02:24:15;;;;;;;19.10;10.67;;;10.90;99.90;10.80;101021.00;;;;4865128;28;95947;-72
2022/04/15 02:26:42;;;;;;;18.27;11.50;;;10.80;99.90;10.70;101025.00;;;;4859324;28;93262;-73
2022/04/15 02:29:08;;;;;;;16.53;10.10;;;10.80;99.90;10.70;101023.00;;;;4865067;28;102473;-73
2022/04/15 02:31:34;;;;;;;19.20;12.37;;;10.70;99.90;10.70;101024.00;;;;4855386;28;94132;-72
2022/04/15 02:34:01;;;;;;;13.50;11.77;;;10.70;99.90;10.70;101024.00;;;;4854417;28;92894;-73
2022/04/15 02:36:26;;;;;;;20.10;12.07;;;10.70;99.90;10.70;101024.00;;;;4854920;28;93149;-73
2022/04/15 02:38:52;;;;;;;22.37;12.33;;;10.70;99.90;10.70;101029.00;;;;4853339;28;122038;-73
2022/04/15 02:41:18;;;;;;;23.43;14.37;;;10.70;99.90;10.80;101022.00;;;;4855858;28;92983;-73
2022/04/15 02:43:44;;;;;;;25.23;13.40;;;10.80;99.90;10.80;101012.00;;;;4869847;28;108935;-72
2022/04/15 02:46:12;;;;;;;19.27;12.47;;;10.80;99.90;10.80;101022.00;;;;4855206;28;122422;-72
2022/04/15 02:48:38;;;;;;;20.47;13.33;;;10.80;99.90;10.80;101020.00;;;;4855770;28;93014;-72
2022/04/15 02:51:04;;;;;;;25.93;13.33;;;10.80;99.90;10.90;101023.00;;;;4873902;28;93295;-72
2022/04/15 02:53:31;;;;;;;22.87;13.97;;;10.90;99.90;10.90;101016.00;;;;4852499;28;93180;-72
2022/04/15 02:55:57;;;;;;;22.73;13.33;;;10.90;99.90;10.90;101013.00;;;;4820699;28;96279;-71
2022/04/15 02:58:23;;;;;;;20.20;12.63;;;10.90;99.90;10.90;101010.00;;;;4856972;28;94004;-72
2022/04/15 03:00:49;;;;;;;22.17;12.87;;;10.90;99.90;10.90;101009.00;;;;4873037;28;92924;-71
2022/04/15 03:03:15;;;;;;;24.63;14.27;;;10.90;99.90;10.90;101005.00;;;;4854844;28;92841;-71
2022/04/15 03:05:41;;;;;;;23.93;14.63;;;10.90;99.90;10.90;101012.00;;;;4851786;28;122871;-70
2022/04/15 03:08:07;;;;;;;19.53;14.87;;;10.90;99.90;10.90;101010.00;;;;4861789;28;94184;-70
2022/04/15 03:10:33;;;;;;;29.90;15.40;;;10.90;99.90;10.90;101011.00;;;;4865607;28;93045;-70
2022/04/15 03:12:59;;;;;;;21.37;13.13;;;10.90;99.90;10.90;101011.00;;;;4858473;28;92009;-71
2022/04/15 03:15:25;;;;;;;22.43;15.90;;;10.90;99.90;10.90;101000.00;;;;4874374;28;93864;-72
2022/04/15 03:17:51;;;;;;;24.63;14.63;;;10.90;99.90;10.90;101007.00;;;;4850485;28;96652;-71
2022/04/15 03:20:17;;;;;;;26.23;14.97;;;10.90;99.90;10.90;101008.00;;;;4862520;28;93957;-70
2022/04/15 03:22:44;;;;;;;26.07;15.77;;;10.90;99.90;10.90;101009.00;;;;4857525;28;96387;-72
2022/04/15 03:25:20;;;;;;;27.77;15.03;;;10.90;99.90;10.90;101008.00;;;;4857662;28;93712;-72
2022/04/15 03:27:47;;;;;;;25.90;16.23;;;10.90;99.90;10.90;101012.00;;;;4867022;28;121118;-73
2022/04/15 03:30:14;;;;;;;30.00;15.53;;;10.90;99.90;10.90;101012.00;;;;4859673;28;92918;-73
2022/04/15 03:32:51;;;;;;;23.37;14.77;;;10.90;99.90;10.90;101012.00;;;;4857613;28;93071;-73
2022/04/15 03:35:20;;;;;;;18.43;14.40;;;10.90;99.90;10.90;101018.00;;;;4857500;28;94304;-73
2022/04/15 03:37:47;;;;;;;23.97;15.00;;;10.90;99.90;10.90;101006.00;;;;4858837;28;92254;-72
2022/04/15 03:40:13;;;;;;;26.97;14.13;;;10.90;99.90;10.90;101019.00;;;;4876530;28;93191;-73
2022/04/15 03:42:46;;;;;;;25.23;16.07;;;10.90;99.90;10.90;101014.00;;;;4857709;28;109303;-73
2022/04/15 03:45:14;;;;;;;22.10;13.77;;;10.90;99.90;10.90;101015.00;;;;4852997;28;96890;-74
2022/04/15 03:47:43;;;;;;;29.17;17.27;;;11.00;99.90;10.90;101025.00;;;;4857157;28;93956;-73
2022/04/15 03:50:10;;;;;;;31.37;16.80;;;10.90;99.90;10.90;101020.00;;;;4858472;28;92808;-72
2022/04/15 03:52:42;;;;;;;22.20;14.07;;;10.90;99.90;11.00;101020.00;;;;4848392;28;92948;-71
2022/04/15 03:55:16;;;;;;;27.23;16.00;;;11.00;99.90;11.00;101015.00;;;;4863888;28;93551;-74
2022/04/15 03:57:51;;;;;;;19.83;14.83;;;10.90;99.90;11.00;101015.00;;;;4857414;28;93433;-73
2022/04/15 04:00:24;;;;;;;26.20;14.30;;;11.00;99.90;11.00;101016.00;;;;4859527;28;92878;-72
2022/04/15 04:02:53;;;;;;;24.67;14.27;;;11.00;99.90;11.00;101018.00;;;;4867700;28;92722;-73
2022/04/15 04:05:19;;;;;;;23.47;14.63;;;11.00;99.90;11.00;101011.00;;;;4839855;28;93064;-71
2022/04/15 04:07:45;;;;;;;22.37;13.70;;;11.00;99.90;11.10;101025.00;;;;4875331;28;96732;-71
2022/04/15 04:10:12;;;;;;;20.70;13.43;;;11.20;99.90;11.10;101028.00;;;;4858824;28;93797;-71
2022/04/15 04:12:39;;;;;;;18.93;13.50;;;11.10;99.90;11.20;101035.00;;;;4875640;28;92884;-70
2022/04/15 04:15:07;;;;;;;21.87;14.13;;;11.20;99.90;11.20;101040.00;;;;4872986;28;93997;-72
2022/04/15 04:17:33;;;;;;;22.97;14.33;;;11.20;99.90;11.20;101034.00;;;;4874708;28;111758;-71
2022/04/15 04:19:59;;;;;;;21.20;13.90;;;11.20;99.90;11.20;101032.00;;;;4867360;28;92884;-71
2022/04/15 04:22:34;;;;;;;19.90;13.67;;;11.20;99.90;11.20;101034.00;;;;4864520;28;93955;-71
2022/04/15 04:25:00;;;;;;;24.10;14.80;;;11.20;99.90;11.20;101031.00;;;;4875274;28;112715;-70
2022/04/15 04:27:26;;;;;;;23.50;13.10;;;11.20;99.90;11.20;101035.00;;;;4871865;28;103458;-72
2022/04/15 04:29:52;;;;;;;21.83;13.60;;;11.20;99.90;11.20;101034.00;;;;4872830;28;112962;-70
2022/04/15 04:32:19;;;;;;;19.93;13.87;;;11.20;99.90;11.20;101042.00;;;;4855731;28;109416;-70
2022/04/15 04:34:46;;;;;;;25.43;14.17;;;11.20;99.90;11.20;101039.00;;;;4869538;28;95980;-72
2022/04/15 04:37:12;;;;;;;15.73;11.83;;;11.20;99.90;11.20;101034.00;;;;4875610;28;93959;-72
2022/04/15 04:39:38;;;;;;;19.97;13.03;;;11.20;99.90;11.20;101038.00;;;;4875701;28;92947;-71
2022/04/15 04:42:06;;;;;;;28.37;14.30;;;11.20;99.90;11.20;101036.00;;;;4874582;28;106897;-70
2022/04/15 04:44:32;;;;;;;21.47;13.60;;;11.20;99.90;11.20;101048.00;;;;4875159;28;94146;-70
2022/04/15 04:46:59;;;;;;;18.83;12.73;;;11.20;99.90;11.20;101051.00;;;;4874415;28;114446;-70
2022/04/15 04:49:24;;;;;;;14.63;10.63;;;11.20;99.90;11.20;101055.00;;;;4875525;28;92926;-70
2022/04/15 04:51:50;;;;;;;18.10;12.40;;;11.20;99.90;11.20;101054.00;;;;4874310;28;108679;-70
2022/04/15 04:54:16;;;;;;;16.93;12.07;;;11.30;99.90;11.30;101047.00;;;;4875819;28;93144;-70
2022/04/15 04:56:42;;;;;;;24.33;12.67;;;11.30;99.90;11.30;101059.00;;;;4873943;28;123627;-70
2022/04/15 04:59:08;;;;;;;18.23;12.30;;;11.30;99.90;11.30;101070.00;;;;4875383;28;93856;-71
2022/04/15 05:01:34;;;;;;;20.20;12.60;;;11.30;99.90;11.30;101076.00;;;;4869373;28;108728;-72
2022/04/15 05:04:00;;;;;;;16.73;11.27;;;11.30;99.90;11.30;101075.00;;;;4854272;28;121363;-71
2022/04/15 05:06:25;;;;;;;18.43;12.57;;;11.30;99.90;11.30;101078.00;;;;4857495;28;92722;-70
2022/04/15 05:08:51;;;;;;;16.53;12.57;;;11.30;99.90;11.30;101080.00;;;;4871137;28;113424;-71
2022/04/15 05:11:23;;;;;;;19.00;11.00;;;11.30;99.90;11.30;101082.00;;;;4875728;28;92862;-72
2022/04/15 05:13:50;;;;;;;14.00;9.53;;;11.30;99.90;11.30;101087.00;;;;4839120;28;121416;-70
2022/04/15 05:16:16;;;;;;;12.03;9.87;;;11.30;99.90;11.30;101091.00;;;;4875139;28;93193;-70
2022/04/15 05:18:45;;;;;;;15.33;9.20;;;11.30;99.90;11.30;101093.00;;;;4853175;28;93360;-71
2022/04/15 05:21:11;;;;;;;12.00;7.83;;;11.30;99.90;11.20;101087.00;;;;4872887;28;93127;-71
2022/04/15 05:23:37;;;;;;;9.33;7.80;;;11.20;99.90;11.20;101095.00;;;;4874192;28;108912;-70
2022/04/15 05:26:02;;;;;;;13.87;7.50;;;11.20;99.90;11.20;101102.00;;;;4872222;28;95103;-70
2022/04/15 05:28:30;;;;;;;10.50;8.27;;;11.20;99.90;11.20;101101.00;;;;4871427;28;106037;-70
2022/04/15 05:30:56;;;;;;;8.70;7.00;;;11.20;99.90;11.10;101104.00;;;;4857982;28;92944;-69
2022/04/15 05:33:21;;;;;;;10.50;6.67;;;11.20;99.90;11.10;101111.00;;;;4838419;28;95306;-69
2022/04/15 05:35:47;;;;;;;8.03;5.70;;;11.20;99.90;11.10;101117.00;;;;4854555;28;121634;-69
2022/04/15 05:38:13;;;;;;;7.20;5.10;;;11.10;99.90;11.00;101119.00;;;;4855871;28;101714;-68
2022/04/15 05:40:38;;;;;;;7.67;5.60;;;11.10;99.90;11.00;101119.00;;;;4856314;28;107562;-68
2022/04/15 05:43:04;;;;;;;7.73;4.93;;;11.10;99.90;11.00;101117.00;;;;4856253;28;94672;-68
2022/04/15 05:45:30;;;;;;;8.00;4.47;;;11.00;99.90;11.00;101120.00;;;;4855492;28;122187;-68
2022/04/15 05:47:57;;;;;;;5.83;4.60;;;11.00;99.90;11.00;101123.00;;;;4855275;28;110010;-68
2022/04/15 05:50:25;;;;;;;6.97;4.87;;;11.00;99.90;10.90;101125.00;;;;4874586;28;93202;-69
2022/04/15 05:52:50;;;;;;;5.10;3.73;;;10.90;99.90;10.90;101135.00;;;;4857687;28;93288;-68
2022/04/15 05:55:16;;;;;;;4.07;3.40;;;10.90;99.90;10.90;101136.00;;;;4873374;28;93722;-67
2022/04/15 05:57:42;;;;;;;7.03;4.33;;;10.90;99.90;10.80;101135.00;;;;4865240;28;109759;-68
2022/04/15 06:00:10;;;;;;;4.87;3.83;;;10.90;99.90;10.80;101153.00;;;;4856295;28;107699;-67
2022/04/15 06:02:35;;;;;;;7.57;4.03;;;10.80;99.90;10.70;101139.00;;;;4857120;28;94497;-67
2022/04/15 06:05:02;;;;;;;4.37;3.23;;;10.80;99.90;10.70;101152.00;;;;4853732;28;121479;-67
2022/04/15 06:07:27;;;;;;;3.97;1.93;;;10.70;99.90;10.60;101146.00;;;;4855433;28;93624;-69
2022/04/15 06:09:53;;;;;;;4.23;3.57;;;10.70;99.90;10.50;101153.00;;;;4867852;28;107365;-68
2022/04/15 06:12:22;;;;;;;4.30;2.83;;;10.60;99.90;10.50;101160.00;;;;4872934;28;123530;-68
2022/04/15 06:14:49;;;;;;;3.27;2.97;;;10.50;99.90;10.40;101153.00;;;;4860978;28;93655;-69
2022/04/15 06:17:21;;;;;;;3.47;3.17;;;10.50;99.90;10.40;101167.00;;;;4855159;28;111042;-68
2022/04/15 06:19:47;;;;;;;5.53;2.87;;;10.40;99.90;10.30;101166.00;;;;4869627;28;92902;-69
2022/04/15 06:22:13;;;;;;;3.37;2.93;;;10.40;99.90;10.30;101164.00;;;;4874493;28;93548;-69
2022/04/15 06:24:39;;;;;;;3.57;2.20;;;10.30;99.90;10.20;101174.00;;;;4870552;28;115281;-68
2022/04/15 06:27:05;;;;;;;7.17;2.87;;;10.30;99.90;10.20;101177.00;;;;4860376;28;109154;-68
2022/04/15 06:29:30;;;;;;;5.50;3.10;;;10.30;99.90;10.20;101168.00;;;;4869957;28;109247;-69
2022/04/15 06:31:56;;;;;;;5.37;2.67;;;10.30;99.90;10.20;101177.00;;;;4867528;28;124212;-68
2022/04/15 06:34:22;;;;;;;4.53;2.97;;;10.20;99.90;10.20;101161.00;;;;4868982;28;120701;-68
2022/04/15 06:36:47;;;;;;;4.50;3.13;;;10.30;99.90;10.20;101170.00;;;;4871163;28;102670;-68
2022/04/15 06:39:13;;;;;;;4.80;3.13;;;10.30;99.90;10.20;101180.00;;;;4865746;28;107798;-69
2022/04/15 06:41:40;;;;;;;5.47;3.27;;;10.30;99.90;10.20;101176.00;;;;4870075;28;122035;-69
2022/04/15 06:44:06;;;;;;;4.93;3.13;;;10.20;99.90;10.20;101162.00;;;;4871051;28;93284;-68
2022/04/15 06:46:38;;;;;;;4.70;3.07;;;10.20;99.90;10.20;101165.00;;;;4872374;28;92871;-68
2022/04/15 06:49:04;;;;;;;4.70;2.70;;;10.20;99.90;10.20;101165.00;;;;4874209;28;92963;-68
2022/04/15 06:51:31;;;;;;;6.03;3.00;;;10.20;99.90;10.20;101174.00;;;;4873719;28;120411;-68
2022/04/15 06:53:56;;;;;;;8.33;4.67;;;10.20;99.90;10.30;101178.00;;;;4868386;28;92949;-69
2022/04/15 06:56:22;;;;;;;8.37;4.40;;;10.20;99.90;10.30;101165.00;;;;4871796;28;92811;-68
2022/04/15 06:58:48;;;;;;;8.33;2.70;;;10.30;99.90;10.50;101172.00;;;;4872264;28;108368;-67
2022/04/15 07:01:14;;;;;;;5.10;3.57;;;10.40;99.90;10.70;101175.00;;;;4874131;28;93800;-68
2022/04/15 07:03:40;;;;;;;8.63;3.77;;;10.60;99.90;11.10;101175.00;;;;4873209;28;124197;-68
2022/04/15 07:06:05;;;;;;;4.10;2.77;;;10.90;99.90;11.40;101182.00;;;;4873706;28;110470;-67
2022/04/15 07:08:31;;;;;;;7.97;3.07;;;11.20;99.90;11.70;101187.00;;;;4869343;28;107528;-67
2022/04/15 07:10:56;;;;;;;4.30;1.97;;;11.50;99.90;11.80;101189.00;;;;4869252;28;122742;-67
2022/04/15 07:13:22;;;;;;;3.87;2.30;;;11.70;99.90;12.00;101190.00;;;;4873284;28;122353;-67
2022/04/15 07:15:50;;;;;;;4.43;2.17;;;11.90;99.90;12.00;101196.00;;;;4873331;28;111507;-67
2022/04/15 07:18:25;;;;;;;3.00;2.60;;;12.00;99.90;12.00;101202.00;;;;4873777;28;92306;-67
2022/04/15 07:20:50;;;;;;;4.73;1.80;;;12.00;99.90;12.00;101200.00;;;;4872446;28;121605;-66
2022/04/15 07:23:16;;;;;;;1.67;1.53;;;12.20;99.90;12.00;101203.00;;;;4872074;28;123124;-67
2022/04/15 07:25:42;;;;;;;2.47;2.03;;;12.00;99.90;11.90;101206.00;;;;4868410;28;108932;-67
2022/04/15 07:28:08;;;;;;;3.27;1.87;;;11.90;99.90;11.70;101212.00;;;;4873204;28;92961;-67
2022/04/15 07:30:33;;;;;;;1.63;1.53;;;11.80;99.90;11.60;101208.00;;;;4872884;28;93039;-68
2022/04/15 07:33:01;;;;;;;4.40;2.23;;;11.70;99.90;11.50;101209.00;;;;4855036;28;121849;-68
2022/04/15 07:35:30;;;;;;;4.63;1.83;;;11.60;99.90;11.40;101212.00;;;;4873915;28;92997;-65
2022/04/15 07:37:56;;;;;;;1.80;1.70;;;11.50;99.90;11.40;101213.00;;;;4874866;28;93017;-67
2022/04/15 07:40:27;;;;;;;1.90;1.67;;;11.40;99.90;11.30;101206.00;;;;4871765;28;95100;-67
2022/04/15 07:42:54;;;;;;;4.03;1.63;;;11.30;99.90;11.20;101217.00;;;;4873682;28;92941;-66
2022/04/15 07:45:20;;;;;;;2.90;1.77;;;11.20;99.90;11.10;101213.00;;;;4873751;28;92945;-66
2022/04/15 07:48:01;;;;;;;3.07;2.43;;;11.20;99.90;11.10;101215.00;;;;4872869;28;109133;-66
2022/04/15 07:50:27;;;;;;;2.37;1.80;;;11.20;99.90;11.10;101218.00;;;;4861896;28;123451;-67
2022/04/15 07:52:58;;;;;;;1.80;1.70;;;11.10;99.90;11.00;101222.00;;;;4873535;28;94612;-66
2022/04/15 07:55:25;;;;;;;2.30;1.60;;;11.00;99.90;11.00;101219.00;;;;4854553;28;93934;-67
2022/04/15 07:57:50;;;;;;;2.23;2.03;;;11.00;99.90;10.90;101216.00;;;;4872558;28;92974;-67
2022/04/15 08:00:39;;;;;;;2.13;1.40;;;10.90;99.90;10.90;101225.00;;;;4868197;28;121165;-67
2022/04/15 08:03:05;;;;;;;2.63;1.93;;;10.90;99.90;10.90;101226.00;;;;4873734;28;93346;-67
2022/04/15 08:05:30;;;;;;;2.70;1.67;;;10.90;99.90;10.80;101231.00;;;;4870826;28;111910;-66
2022/04/15 08:07:56;;;;;;;1.77;1.67;;;10.80;99.90;10.80;101239.00;;;;4872927;28;100760;-67
2022/04/15 08:10:23;;;;;;;1.77;1.20;;;10.80;99.90;10.80;101234.00;;;;4867729;28;123284;-66
2022/04/15 08:12:49;;;;;;;1.50;1.23;;;10.80;99.90;10.70;101244.00;;;;4871474;28;92870;-66
2022/04/15 08:15:15;;;;;;;1.60;1.50;;;10.80;99.90;10.70;101246.00;;;;4868590;28;94022;-66
2022/04/15 08:17:40;;;;;;;1.23;1.13;;;10.70;99.90;10.80;101255.00;;;;4872141;28;109047;-66
2022/04/15 08:20:06;;;;;;;2.20;1.57;;;10.80;99.90;10.80;101245.00;;;;4871137;28;122905;-66
2022/04/15 08:22:35;;;;;;;1.97;1.03;;;10.80;99.90;10.90;101243.00;;;;4872413;28;111756;-67
2022/04/15 08:25:02;;;;;;;1.87;1.67;;;10.80;99.90;11.00;101254.00;;;;4853529;28;93001;-66
2022/04/15 08:27:28;;;;;;;2.63;1.37;;;10.90;99.90;11.00;101249.00;;;;4855124;28;92739;-66
2022/04/15 08:29:54;;;;;;;3.57;1.07;;;11.00;99.90;11.10;101251.00;;;;4873362;28;92999;-66
2022/04/15 08:32:21;;;;;;;1.63;1.20;;;11.00;99.90;11.20;101249.00;;;;4854337;28;122194;-66
2022/04/15 08:34:47;;;;;;;1.37;1.10;;;11.10;99.90;11.30;101260.00;;;;4870039;28;93303;-66
2022/04/15 08:37:13;;;;;;;1.17;1.00;;;11.20;99.90;11.40;101256.00;;;;4870753;28;108958;-66
2022/04/15 08:39:39;;;;;;;2.47;1.27;;;11.30;99.90;11.40;101264.00;;;;4872050;28;95200;-66
2022/04/15 08:42:09;;;;;;;1.57;1.20;;;11.30;99.90;11.50;101261.00;;;;4871799;28;93965;-67
2022/04/15 08:44:35;;;;;;;1.63;1.53;;;11.50;99.90;11.60;101269.00;;;;4872717;28;92732;-67
2022/04/15 08:47:02;;;;;;;1.20;0.87;;;11.60;99.90;11.70;101281.00;;;;4871433;28;107467;-66
2022/04/15 08:49:29;;;;;;;1.77;1.33;;;11.60;99.90;11.70;101274.00;;;;4872515;28;93707;-66
2022/04/15 08:51:55;;;;;;;1.20;1.00;;;11.60;99.90;11.70;101270.00;;;;4871938;28;93382;-68
2022/04/15 08:54:22;;;;;;;1.17;0.90;;;11.60;99.90;11.70;101285.00;;;;4871726;28;92934;-66
2022/04/15 08:56:48;;;;;;;1.40;1.30;;;11.70;99.90;11.70;101282.00;;;;4871599;28;107921;-67
2022/04/15 08:59:15;;;;;;;2.33;1.20;;;11.70;99.90;11.70;101283.00;;;;4871405;28;123392;-66
2022/04/15 09:01:41;;;;;;;1.63;1.27;;;11.70;99.90;11.60;101290.00;;;;4872740;28;93856;-66
2022/04/15 09:04:07;;;;;;;2.17;1.50;;;11.60;99.90;11.50;101290.00;;;;4872225;28;94393;-66
2022/04/15 09:06:32;;;;;;;2.27;1.30;;;11.50;99.90;11.40;101284.00;;;;4872171;28;107326;-66
2022/04/15 09:09:08;;;;;;;2.27;1.10;;;11.40;99.90;11.40;101297.00;;;;4867917;28;100761;-66
2022/04/15 09:11:39;;;;;;;1.57;0.83;;;11.40;99.90;11.30;101299.00;;;;4854558;28;93123;-66
2022/04/15 09:14:13;;;;;;;1.33;1.00;;;11.30;99.90;11.30;101302.00;;;;4872506;28;93052;-66
2022/04/15 09:16:45;;;;;;;1.60;0.87;;;11.30;99.90;11.20;101308.00;;;;4872545;28;93163;-66
2022/04/15 09:19:12;;;;;;;3.80;2.50;;;11.20;99.90;11.30;101314.00;;;;4869595;28;93001;-66
2022/04/15 09:21:41;;;;;;;1.53;1.17;;;11.30;99.90;11.30;101301.00;;;;4838854;28;104356;-66
2022/04/15 09:24:07;;;;;;;3.03;1.60;;;11.30;99.90;11.30;101303.00;;;;4853932;28;92982;-66
2022/04/15 09:26:33;;;;;;;2.00;0.93;;;11.30;99.90;11.30;101313.00;;;;4871679;28;93062;-66
2022/04/15 09:28:59;;;;;;;1.20;1.10;;;11.30;99.90;11.30;101317.00;;;;4852102;28;98521;-66
2022/04/15 09:31:25;;;;;;;0.97;0.60;;;11.30;99.90;11.30;101317.00;;;;4872768;28;94176;-66
2022/04/15 09:34:00;;;;;;;2.37;1.30;;;11.20;99.90;11.30;101307.00;;;;4872298;28;92686;-66
2022/04/15 09:36:27;;;;;;;1.53;1.40;;;11.30;99.90;11.20;101319.00;;;;4873098;28;92939;-66
2022/04/15 09:39:16;;;;;;;2.13;1.37;;;11.60;99.90;11.20;101316.00;;;;4853140;28;94869;-66
2022/04/15 09:41:52;;;;;;;3.97;1.57;;;11.20;99.90;11.10;101311.00;;;;4869926;28;92958;-66
2022/04/15 09:44:17;;;;;;;1.53;1.23;;;11.10;99.90;11.00;101309.00;;;;4871803;28;93036;-66
2022/04/15 09:46:46;;;;;;;1.90;1.40;;;11.10;99.90;11.00;101324.00;;;;4854530;28;92258;-66
2022/04/15 09:49:13;;;;;;;1.57;1.40;;;11.00;99.90;10.90;101312.00;;;;4871492;28;93104;-66
2022/04/15 09:51:51;;;;;;;1.13;1.03;;;11.00;99.90;10.90;101313.00;;;;4867793;28;93567;-66
2022/04/15 09:54:28;;;;;;;1.57;1.40;;;10.90;99.90;10.80;101316.00;;;;4867290;28;94914;-66
2022/04/15 09:57:00;;;;;;;1.80;1.37;;;10.90;99.90;10.70;101319.00;;;;4871557;28;92883;-66
2022/04/15 09:59:29;;;;;;;2.67;1.63;;;10.80;99.90;10.60;101322.00;;;;4866034;28;93833;-67
2022/04/15 10:02:04;;;;;;;1.87;1.40;;;10.70;99.90;10.60;101332.00;;;;4870026;28;92970;-66
2022/04/15 10:04:30;;;;;;;2.83;2.10;;;10.70;99.90;10.60;101329.00;;;;4867466;28;94354;-66
2022/04/15 10:06:56;;;;;;;1.60;1.50;;;10.70;99.90;10.60;101319.00;;;;4854465;28;92725;-66
2022/04/15 10:09:22;;;;;;;1.57;1.33;;;10.60;99.90;10.60;101322.00;;;;4865349;28;93061;-66
2022/04/15 10:11:49;;;;;;;1.27;1.17;;;10.60;99.90;10.70;101328.00;;;;4871149;28;92533;-66
2022/04/15 10:14:17;;;;;;;2.17;1.77;;;10.70;99.90;10.80;101325.00;;;;4872113;28;93017;-66
2022/04/15 10:16:43;;;;;;;1.20;1.10;;;10.80;99.90;10.90;101333.00;;;;4871868;28;92994;-66
2022/04/15 10:19:19;;;;;;;1.47;0.97;;;10.90;99.90;11.10;101327.00;;;;4869024;28;95022;-66
2022/04/15 10:21:50;;;;;;;1.63;1.10;;;11.00;99.90;11.20;101336.00;;;;4851589;28;94748;-66
2022/04/15 10:24:16;;;;;;;1.20;1.10;;;11.20;99.90;11.30;101332.00;;;;4866914;28;101273;-66
2022/04/15 10:26:49;;;;;;;1.33;1.10;;;11.20;99.90;11.30;101331.00;;;;4853695;28;93138;-66
2022/04/15 10:29:14;;;;;;;1.87;1.30;;;11.20;99.90;11.20;101329.00;;;;4870580;28;93254;-66
2022/04/15 10:31:54;;;;;;;2.33;1.37;;;11.20;99.90;11.30;101329.00;;;;4870776;28;122002;-66
2022/04/15 10:34:21;;;;;;;4.37;1.33;;;11.20;99.90;11.30;101334.00;;;;4870812;28;92763;-66
2022/04/15 10:36:54;;;;;;;2.37;1.40;;;11.20;99.90;11.30;101332.00;;;;4872018;28;92190;-66
2022/04/15 10:39:25;;;;;;;3.53;1.30;;;11.30;99.90;11.30;101333.00;;;;4870294;28;115035;-66